(°C)
(°C)
-3°
-3°
-3°
-3°
-3°
-3°
-2°
ИЮИ
ИЮИ
ИЮИ
ИЮИ
ИЮИ
ИЮИ
ЮИ
(km/h)
20-30
20-26
20-28
20-27
20-27
20-27
20-26
(mm)
0
0.2
0
0
0
0
0
(%)
0
25
0
0
0
0
0

Издигане на слънцето

/ 10.3°
sun-icon
UV 0
07:18
16:22
Последна четвърт на луната (270°)
23:33
13:13

METAR за 46.38°С 44.32°И (URWI)

Час Условия Температура/
Точка на оросяване
Вятър Видимост Времето Облаци Налягане Промяна Сурови
LIFR 3°C / 3°C 130º 10kt 500m. Runway 09: Visual range is 500m and decreasing. Light Drizzle Fog 0.20mm precipitation Vertical Visibility of 0ft. 1018 No Significant change. Runway 09: Clear and dry, 1-10% contamination with <1mm, friction coefficient 0.65. URWI 271130Z 13005MPS 0500 0400E R09/0500D -DZ FG VV001 03/03 Q1018 R09/010065 NOSIG RMK QBB050 OBST OBSC
LIFR 3°C / 3°C 130º 8kt 800m. Runway 09: Visual range is 1000m. Light Drizzle Fog 0.20mm precipitation Vertical Visibility of 0ft. 1018 No Significant change. Runway 09: Clear and dry, 1-10% contamination with <1mm, friction coefficient 0.65. URWI 271100Z 13004MPS 0800 0750E R09/1000N -DZ FG VV002 03/03 Q1018 R09/010065 NOSIG RMK QBB060 OBST OBSC
LIFR 3°C / 2°C 130º 10kt 1100m. Runway 09: Visual range is 1100m. Mist Vertical Visibility of 0ft. 1018 No Significant change. Runway 09: Clear and dry, 1-10% contamination with <1mm, friction coefficient 0.65. URWI 271030Z 13005MPS 1100 R09/1100N BR OVC002 03/02 Q1018 R09/010065 NOSIG RMK QBB060 OBST OBSC
LIFR 3°C / 2°C 120º 8kt 1500m. Runway 09: Visual range is 1600m and increasing. Mist Vertical Visibility of 0ft. 1018 No Significant change. Runway 09: Clear and dry, 1-10% contamination with <1mm, friction coefficient 0.65. URWI 271000Z 12004MPS 1500 1200E R09/1600U BR OVC001 03/02 Q1018 R09/010065 NOSIG RMK QBB050 OBST OBSC
LIFR 2°C / 2°C 130º 10kt 1600m Mist Vertical Visibility of 0ft. 1019 No Significant change. Runway 09: Clear and dry, 1-10% contamination with <1mm, friction coefficient 0.65. URWI 270930Z 13005MPS 1600 1000S BR OVC002 02/02 Q1019 R09/010065 NOSIG RMK QBB060 OBST OBSC
LIFR 2°C / 2°C 120º 10kt 2800m Mist Vertical Visibility of 0ft. 1019 No Significant change. Runway 09: Clear and dry, 1-10% contamination with <1mm, friction coefficient 0.65. URWI 270900Z 12005MPS 2800 1400E BR OVC002 02/02 Q1019 R09/010065 NOSIG RMK QBB070 OBST OBSC
LIFR 1°C / 1°C 130º 10kt 1100m. Runway 09: Visual range is 1100m and increasing. Mist Vertical Visibility of 0ft. 1019 No Significant change. Runway 09: Clear and dry, 1-10% contamination with <1mm, friction coefficient 0.65. URWI 270830Z 13005MPS 1100 R09/1100U BR OVC002 01/01 Q1019 R09/010065 NOSIG RMK QBB060 OBST OBSC
LIFR 1°C / 1°C 130º 10kt 600m. Runway 09: Visual range is 800m. Fog Vertical Visibility of 0ft. 1020 No Significant change. Runway 09: Clear and dry, 1-10% contamination with <1mm, friction coefficient 0.65. URWI 270800Z 13005MPS 0600 0550E R09/0800N FG VV002 01/01 Q1020 R09/010065 NOSIG RMK QBB060 OBST OBSC
LIFR 1°C / 0°C 140º 12kt 260m. Runway 09: Visual range is 300m and decreasing. Fog Vertical Visibility of 0ft. 1020 No Significant change. Runway 09: Clear and dry, 1-10% contamination with <1mm, friction coefficient 0.65. URWI 270730Z 14006MPS 0250 R09/0300D FG VV001 01/00 Q1020 R09/010065 NOSIG RMK QBB050 OBST OBSC
VFR 0°C / -1°C 140º 12kt 9000m Mist Vertical Visibility of 0ft. 1020 Temporary: Visibility 0300. freezing Fog . VV002 RMK QBB050 OBST OBSC . Runway 09: Clear and dry, 1-10% contamination with <1mm, friction coefficient 0.65. URWI 270700Z 14006MPS 9000 1700E BR SCT001 00/M01 Q1020 R09/010065 TEMPO 0300 FZFG VV002 RMK QBB050 OBST OBSC
LIFR 0°C / -1°C 150º 10kt >10km - Overcast 300ft 1020 Temporary: Visibility 0800. freezing Fog . VV002 RMK QBB110 . Runway 09: Clear and dry, 1-10% contamination with <1mm, friction coefficient 0.65. URWI 270630Z 15005MPS 9999 OVC003 00/M01 Q1020 R09/010065 TEMPO 0800 FZFG VV002 RMK QBB110
IFR 0°C / -1°C 140º 10kt >10km - Overcast 600ft 1020 Temporary: Visibility 0800. freezing Fog . VV002 . Runway 09: Clear and dry, 1-10% contamination with <1mm, friction coefficient 0.65. URWI 270600Z 14005MPS 9999 OVC006 M00/M01 Q1020 R09/010065 TEMPO 0800 FZFG VV002
IFR 0°C / -2°C 120º 8kt >10km - Overcast 600ft 1020 Temporary: Visibility 3000. Mist . Scattered Clouds 500ft. . Runway 09: Clear and dry, 1-10% contamination with <1mm, friction coefficient 0.65. URWI 270530Z 12004MPS 9999 OVC006 M00/M02 Q1020 R09/010065 TEMPO 3000 BR SCT005
0°C / -2°C 120º 8kt >10km - 1020 - URWI 270500Z AUTO 12004MPS 9999 // ///008/// M00/M02 Q1020
-1°C / -2°C 130º 8kt >10km - 1021 - URWI 270430Z AUTO 13004MPS 9999 // ///007/// M01/M02 Q1021
-1°C / -2°C 140º 10kt >10km - 1020 - URWI 270400Z AUTO 14005MPS 9999 // ///007/// M01/M02 Q1020
-1°C / -2°C 140º 8kt >10km - 1020 - URWI 270330Z AUTO 14004MPS 9999 // ///006/// M01/M02 Q1020
-1°C / -2°C 140º 10kt >10km - 1021 - URWI 270300Z AUTO 14005MPS 9999 // ///005/// M01/M02 Q1021
-1°C / -2°C 150º 10kt >10km - 1021 - URWI 270230Z AUTO 15005MPS 9999 // ///006/// M01/M02 Q1021
-1°C / -2°C 130º 10kt >10km - 1020 - URWI 270200Z AUTO 13005MPS 9999 // ///////// M01/M02 Q1020
0°C / -1°C 140º 12kt >10km - 1021 - URWI 270130Z AUTO 14006MPS 9999 // ///005/// M00/M01 Q1021
0°C / -1°C 130º 8kt >10km - 1021 - URWI 270100Z AUTO 13004MPS 9999 // ///009/// M00/M01 Q1021
0°C / -1°C 120º 8kt >10km - 1021 - URWI 270030Z AUTO 12004MPS 9999 // ///032/// 00/M01 Q1021
0°C / -1°C 130º 10kt >10km - 1022 - URWI 270000Z AUTO 13005MPS 9999 // ///032/// 00/M01 Q1022

LIFR

3°C / 3°C

[Още]
Вятър 130º 10kt
Видимост 500m. Runway 09: Visual range is 500m and decreasing.
Времето Light Drizzle Fog 0.20mm precipitation
Облаци Vertical Visibility of 0ft.
Налягане 1018
Промяна No Significant change. Runway 09: Clear and dry, 1-10% contamination with <1mm, friction coefficient 0.65.
Сурови URWI 271130Z 13005MPS 0500 0400E R09/0500D -DZ FG VV001 03/03 Q1018 R09/010065 NOSIG RMK QBB050 OBST OBSC

LIFR

3°C / 3°C

[Още]
Вятър 130º 8kt
Видимост 800m. Runway 09: Visual range is 1000m.
Времето Light Drizzle Fog 0.20mm precipitation
Облаци Vertical Visibility of 0ft.
Налягане 1018
Промяна No Significant change. Runway 09: Clear and dry, 1-10% contamination with <1mm, friction coefficient 0.65.
Сурови URWI 271100Z 13004MPS 0800 0750E R09/1000N -DZ FG VV002 03/03 Q1018 R09/010065 NOSIG RMK QBB060 OBST OBSC

LIFR

3°C / 2°C

[Още]
Вятър 130º 10kt
Видимост 1100m. Runway 09: Visual range is 1100m.
Времето Mist
Облаци Vertical Visibility of 0ft.
Налягане 1018
Промяна No Significant change. Runway 09: Clear and dry, 1-10% contamination with <1mm, friction coefficient 0.65.
Сурови URWI 271030Z 13005MPS 1100 R09/1100N BR OVC002 03/02 Q1018 R09/010065 NOSIG RMK QBB060 OBST OBSC

LIFR

3°C / 2°C

[Още]
Вятър 120º 8kt
Видимост 1500m. Runway 09: Visual range is 1600m and increasing.
Времето Mist
Облаци Vertical Visibility of 0ft.
Налягане 1018
Промяна No Significant change. Runway 09: Clear and dry, 1-10% contamination with <1mm, friction coefficient 0.65.
Сурови URWI 271000Z 12004MPS 1500 1200E R09/1600U BR OVC001 03/02 Q1018 R09/010065 NOSIG RMK QBB050 OBST OBSC

LIFR

2°C / 2°C

[Още]
Вятър 130º 10kt
Видимост 1600m
Времето Mist
Облаци Vertical Visibility of 0ft.
Налягане 1019
Промяна No Significant change. Runway 09: Clear and dry, 1-10% contamination with <1mm, friction coefficient 0.65.
Сурови URWI 270930Z 13005MPS 1600 1000S BR OVC002 02/02 Q1019 R09/010065 NOSIG RMK QBB060 OBST OBSC

LIFR

2°C / 2°C

[Още]
Вятър 120º 10kt
Видимост 2800m
Времето Mist
Облаци Vertical Visibility of 0ft.
Налягане 1019
Промяна No Significant change. Runway 09: Clear and dry, 1-10% contamination with <1mm, friction coefficient 0.65.
Сурови URWI 270900Z 12005MPS 2800 1400E BR OVC002 02/02 Q1019 R09/010065 NOSIG RMK QBB070 OBST OBSC

LIFR

1°C / 1°C

[Още]
Вятър 130º 10kt
Видимост 1100m. Runway 09: Visual range is 1100m and increasing.
Времето Mist
Облаци Vertical Visibility of 0ft.
Налягане 1019
Промяна No Significant change. Runway 09: Clear and dry, 1-10% contamination with <1mm, friction coefficient 0.65.
Сурови URWI 270830Z 13005MPS 1100 R09/1100U BR OVC002 01/01 Q1019 R09/010065 NOSIG RMK QBB060 OBST OBSC

LIFR

1°C / 1°C

[Още]
Вятър 130º 10kt
Видимост 600m. Runway 09: Visual range is 800m.
Времето Fog
Облаци Vertical Visibility of 0ft.
Налягане 1020
Промяна No Significant change. Runway 09: Clear and dry, 1-10% contamination with <1mm, friction coefficient 0.65.
Сурови URWI 270800Z 13005MPS 0600 0550E R09/0800N FG VV002 01/01 Q1020 R09/010065 NOSIG RMK QBB060 OBST OBSC

LIFR

1°C / 0°C

[Още]
Вятър 140º 12kt
Видимост 260m. Runway 09: Visual range is 300m and decreasing.
Времето Fog
Облаци Vertical Visibility of 0ft.
Налягане 1020
Промяна No Significant change. Runway 09: Clear and dry, 1-10% contamination with <1mm, friction coefficient 0.65.
Сурови URWI 270730Z 14006MPS 0250 R09/0300D FG VV001 01/00 Q1020 R09/010065 NOSIG RMK QBB050 OBST OBSC

VFR

0°C / -1°C

[Още]
Вятър 140º 12kt
Видимост 9000m
Времето Mist
Облаци Vertical Visibility of 0ft.
Налягане 1020
Промяна Temporary: Visibility 0300. freezing Fog . VV002 RMK QBB050 OBST OBSC . Runway 09: Clear and dry, 1-10% contamination with <1mm, friction coefficient 0.65.
Сурови URWI 270700Z 14006MPS 9000 1700E BR SCT001 00/M01 Q1020 R09/010065 TEMPO 0300 FZFG VV002 RMK QBB050 OBST OBSC

LIFR

0°C / -1°C

[Още]
Вятър 150º 10kt
Видимост >10km
Времето -
Облаци Overcast 300ft
Налягане 1020
Промяна Temporary: Visibility 0800. freezing Fog . VV002 RMK QBB110 . Runway 09: Clear and dry, 1-10% contamination with <1mm, friction coefficient 0.65.
Сурови URWI 270630Z 15005MPS 9999 OVC003 00/M01 Q1020 R09/010065 TEMPO 0800 FZFG VV002 RMK QBB110

IFR

0°C / -1°C

[Още]
Вятър 140º 10kt
Видимост >10km
Времето -
Облаци Overcast 600ft
Налягане 1020
Промяна Temporary: Visibility 0800. freezing Fog . VV002 . Runway 09: Clear and dry, 1-10% contamination with <1mm, friction coefficient 0.65.
Сурови URWI 270600Z 14005MPS 9999 OVC006 M00/M01 Q1020 R09/010065 TEMPO 0800 FZFG VV002

IFR

0°C / -2°C

[Още]
Вятър 120º 8kt
Видимост >10km
Времето -
Облаци Overcast 600ft
Налягане 1020
Промяна Temporary: Visibility 3000. Mist . Scattered Clouds 500ft. . Runway 09: Clear and dry, 1-10% contamination with <1mm, friction coefficient 0.65.
Сурови URWI 270530Z 12004MPS 9999 OVC006 M00/M02 Q1020 R09/010065 TEMPO 3000 BR SCT005

0°C / -2°C

[Още]
Вятър 120º 8kt
Видимост >10km
Времето -
Облаци
Налягане 1020
Промяна -
Сурови URWI 270500Z AUTO 12004MPS 9999 // ///008/// M00/M02 Q1020

-1°C / -2°C

[Още]
Вятър 130º 8kt
Видимост >10km
Времето -
Облаци
Налягане 1021
Промяна -
Сурови URWI 270430Z AUTO 13004MPS 9999 // ///007/// M01/M02 Q1021

-1°C / -2°C

[Още]
Вятър 140º 10kt
Видимост >10km
Времето -
Облаци
Налягане 1020
Промяна -
Сурови URWI 270400Z AUTO 14005MPS 9999 // ///007/// M01/M02 Q1020

-1°C / -2°C

[Още]
Вятър 140º 8kt
Видимост >10km
Времето -
Облаци
Налягане 1020
Промяна -
Сурови URWI 270330Z AUTO 14004MPS 9999 // ///006/// M01/M02 Q1020

-1°C / -2°C

[Още]
Вятър 140º 10kt
Видимост >10km
Времето -
Облаци
Налягане 1021
Промяна -
Сурови URWI 270300Z AUTO 14005MPS 9999 // ///005/// M01/M02 Q1021

-1°C / -2°C

[Още]
Вятър 150º 10kt
Видимост >10km
Времето -
Облаци
Налягане 1021
Промяна -
Сурови URWI 270230Z AUTO 15005MPS 9999 // ///006/// M01/M02 Q1021

-1°C / -2°C

[Още]
Вятър 130º 10kt
Видимост >10km
Времето -
Облаци
Налягане 1020
Промяна -
Сурови URWI 270200Z AUTO 13005MPS 9999 // ///////// M01/M02 Q1020

0°C / -1°C

[Още]
Вятър 140º 12kt
Видимост >10km
Времето -
Облаци
Налягане 1021
Промяна -
Сурови URWI 270130Z AUTO 14006MPS 9999 // ///005/// M00/M01 Q1021

0°C / -1°C

[Още]
Вятър 130º 8kt
Видимост >10km
Времето -
Облаци
Налягане 1021
Промяна -
Сурови URWI 270100Z AUTO 13004MPS 9999 // ///009/// M00/M01 Q1021

0°C / -1°C

[Още]
Вятър 120º 8kt
Видимост >10km
Времето -
Облаци
Налягане 1021
Промяна -
Сурови URWI 270030Z AUTO 12004MPS 9999 // ///032/// 00/M01 Q1021

0°C / -1°C

[Още]
Вятър 130º 10kt
Видимост >10km
Времето -
Облаци
Налягане 1022
Промяна -
Сурови URWI 270000Z AUTO 13005MPS 9999 // ///032/// 00/M01 Q1022

TAF за 46.38°С 44.32°И (URWI)

From till


From till Wind 140º 14kt. Gust 27kt. Visibility 498.895m. Light Drizzle Fog . Overcast 200ft.

Сурови: TAF URWI 271055Z 2712/2721 14007G14MPS 0500 -DZ FG OVC002

Актуални сателитни и дъждовни снимки за 46.38°С 44.32°И

Маркерът за локация е поставен върху 46.38°С 44.32°И. [Още]

Сателитното изображение в реално време съчетава видимата светлина през деня с инфрачервеното лъчение през нощта. През нощта изображението не е тъмно, тъй като инфрачервеното лъчение може да открива температурни разлики. За съжаление ниските облаци и мъглата са трудни за разграничаване от температурите на земята и затова могат да бъдат почти невидими през нощта. Сателитните изображения на Meteosat за Европа се актуализират в реално време на всеки 5 минути. Изображенията GOES-16/GOES-17 (Северна и Южна Америка) и Химавари (Азия) се актуализират на всеки 10 минути.

Всички права запазени 2021 EUMETSAT / meteoblue. / Всички права запазени 2021 meteoblue

Радар и валежи в момента за 46.38°С 44.32°И

Ситен дъжд
Лек
Умерен
Тежък
Много тежък
Аве

Маркерът за локация обозначава 46.38°С 44.32°И. Анимацията показва Радара за валежи за последния час, както и прогноза за 1h. Дъждът или лекият сняг може да са невидими за радара. Интензивността на валежите е обозначена с цветни кодове, вариращи от светлосиньо до оранжево.